Temp: 2.8°C   Baro: 999.4mb
  Wind: 4.0mph   Dir: NW (306°)
  Rain: 0.0mm (0.0mm/hr)
  Solar: 0W/m2  Hum: 82%
 
Bath Spa Weather Historical Data
Daily Summary for July 14, 2019 Units:  Both    English   Metric
Next Day »
Daily Weekly Monthly Yearly Custom
  High: Low: Average:
Temperature: 76.1 °F /  24.5 °C 56.8 °F /  13.8 °C 65.8 °F /  18.8 °C
Dew Point: 60.1 °F /  15.6 °C 50.5 °F /  10.3 °C 55.4 °F /  13 °C
Humidity: 82% 55% 70%
Wind Speed: 14mph /  22.5km/h - 2.7mph /  4.3km/h
Wind Gust: 15mph /  24.1km/h - -
Wind direction- - East
Pressure: 30.2 in /  1023.2 hPa 30.2 in /  1021.6 hPa -
Precipitation: 0 in /  0.0 mm    
Historical Graphs
 
 
Tabular Data for July 14, 2019
Time Temperature Dew Point Pressure Wind direction Wind Speed Wind Gust Humidity Rainfall Rate (Hourly) solar
00:04 61.5 °F /  16.4 °C 54.9 °F /  12.7 °C 30.2in /  1022.6hPa NNE 4.9mph /  7.9km/h 11mph /  17.7km/h 79% 0in /  0.0mm 0.00 W/m2
00:09 61.3 °F /  16.3 °C 54.9 °F /  12.7 °C 30.2in /  1022.9hPa NNW 8.9mph /  14.3km/h 10mph /  16.1km/h 79% 0in /  0.0mm 0.00 W/m2
00:14 61.2 °F /  16.2 °C 54.9 °F /  12.7 °C 30.2in /  1022.6hPa NE 2mph /  3.2km/h 10mph /  16.1km/h 80% 0in /  0.0mm 0.00 W/m2
00:19 61 °F /  16.1 °C 54.7 °F /  12.6 °C 30.2in /  1022.9hPa NNE 4mph /  6.4km/h 10mph /  16.1km/h 80% 0in /  0.0mm 0.00 W/m2
00:24 60.8 °F /  16.0 °C 54.7 °F /  12.6 °C 30.2in /  1022.9hPa NE 2mph /  3.2km/h 7mph /  11.3km/h 80% 0in /  0.0mm 0.00 W/m2
00:29 60.6 °F /  15.9 °C 54.5 °F /  12.5 °C 30.2in /  1022.9hPa NNW 4mph /  6.4km/h 15mph /  24.1km/h 80% 0in /  0.0mm 0.00 W/m2
00:34 60.4 °F /  15.8 °C 54.5 °F /  12.5 °C 30.2in /  1022.9hPa North 2mph /  3.2km/h 11mph /  17.7km/h 81% 0in /  0.0mm 0.00 W/m2
00:39 60.4 °F /  15.8 °C 54.5 °F /  12.5 °C 30.2in /  1022.9hPa NNE 2.9mph /  4.7km/h 13mph /  20.9km/h 81% 0in /  0.0mm 0.00 W/m2
00:44 60.3 °F /  15.7 °C 54.3 °F /  12.4 °C 30.2in /  1022.9hPa NE 4.9mph /  7.9km/h 11mph /  17.7km/h 81% 0in /  0.0mm 0.00 W/m2
00:49 60.3 °F /  15.7 °C 54.3 °F /  12.4 °C 30.2in /  1022.9hPa NNE 11mph /  17.7km/h 12mph /  19.3km/h 81% 0in /  0.0mm 0.00 W/m2
00:54 60.1 °F /  15.6 °C 54.3 °F /  12.4 °C 30.2in /  1022.9hPa Calm   7mph /  11.3km/h 81% 0in /  0.0mm 0.00 W/m2
00:59 59.9 °F /  15.5 °C 54.1 °F /  12.3 °C 30.2in /  1022.9hPa North 4.9mph /  7.9km/h 7mph /  11.3km/h 81% 0in /  0.0mm 0.00 W/m2
01:04 59.9 °F /  15.5 °C 54.1 °F /  12.3 °C 30.2in /  1023.2hPa Calm   8mph /  12.9km/h 81% 0in /  0.0mm 0.00 W/m2
01:09 59.7 °F /  15.4 °C 54 °F /  12.2 °C 30.2in /  1023.2hPa Calm   6mph /  9.7km/h 81% 0in /  0.0mm 0.00 W/m2
01:14 59.7 °F /  15.4 °C 54 °F /  12.2 °C 30.2in /  1023.2hPa Calm   5mph /  8.0km/h 81% 0in /  0.0mm 0.00 W/m2
01:19 59.7 °F /  15.4 °C 54 °F /  12.2 °C 30.2in /  1023.2hPa Calm   1mph /  1.6km/h 81% 0in /  0.0mm 0.00 W/m2
01:24 59.5 °F /  15.3 °C 53.8 °F /  12.1 °C 30.2in /  1023.2hPa Calm   2mph /  3.2km/h 81% 0in /  0.0mm 0.00 W/m2
01:29 59.5 °F /  15.3 °C 53.8 °F /  12.1 °C 30.2in /  1023.2hPa Calm   1mph /  1.6km/h 81% 0in /  0.0mm 0.00 W/m2
01:34 59.5 °F /  15.3 °C 53.8 °F /  12.1 °C 30.2in /  1023.2hPa NE 0.9mph /  1.4km/h 4mph /  6.4km/h 81% 0in /  0.0mm 0.00 W/m2
01:39 59.5 °F /  15.3 °C 53.8 °F /  12.1 °C 30.2in /  1023.2hPa NE 0.9mph /  1.4km/h 1mph /  1.6km/h 81% 0in /  0.0mm 0.00 W/m2
01:44 59.4 °F /  15.2 °C 53.6 °F /  12.0 °C 30.2in /  1023.2hPa NE 4.9mph /  7.9km/h 7mph /  11.3km/h 81% 0in /  0.0mm 0.00 W/m2
01:49 59 °F /  15.0 °C 53.2 °F /  11.8 °C 30.2in /  1023.2hPa NNE 2mph /  3.2km/h 10mph /  16.1km/h 81% 0in /  0.0mm 0.00 W/m2
01:54 59 °F /  15.0 °C 52.9 °F /  11.6 °C 30.2in /  1023.2hPa Calm   4mph /  6.4km/h 80% 0in /  0.0mm 0.00 W/m2
01:59 59 °F /  15.0 °C 52.9 °F /  11.6 °C 30.2in /  1023.2hPa NE 0.9mph /  1.4km/h 7mph /  11.3km/h 80% 0in /  0.0mm 0.00 W/m2
02:04 59 °F /  15.0 °C 52.9 °F /  11.6 °C 30.2in /  1023.2hPa Calm   7mph /  11.3km/h 80% 0in /  0.0mm 0.00 W/m2
02:09 58.8 °F /  14.9 °C 52.3 °F /  11.3 °C 30.2in /  1023.2hPa NNE 2.9mph /  4.7km/h 8mph /  12.9km/h 79% 0in /  0.0mm 0.00 W/m2
02:14 58.8 °F /  14.9 °C 52 °F /  11.1 °C 30.2in /  1023.2hPa NNE 4mph /  6.4km/h 5mph /  8.0km/h 78% 0in /  0.0mm 0.00 W/m2
02:19 58.8 °F /  14.9 °C 52 °F /  11.1 °C 30.2in /  1023.2hPa NE 4mph /  6.4km/h 6mph /  9.7km/h 78% 0in /  0.0mm 0.00 W/m2
02:24 58.8 °F /  14.9 °C 51.6 °F /  10.9 °C 30.2in /  1023.2hPa NNE 0.9mph /  1.4km/h 4mph /  6.4km/h 77% 0in /  0.0mm 0.00 W/m2
02:29 58.8 °F /  14.9 °C 51.6 °F /  10.9 °C 30.2in /  1023.2hPa ENE 2.9mph /  4.7km/h 5mph /  8.0km/h 77% 0in /  0.0mm 0.00 W/m2
02:34 58.8 °F /  14.9 °C 51.6 °F /  10.9 °C 30.2in /  1023.2hPa NE 0.9mph /  1.4km/h 10mph /  16.1km/h 77% 0in /  0.0mm 0.00 W/m2
02:39 58.8 °F /  14.9 °C 51.3 °F /  10.7 °C 30.2in /  1023.2hPa ESE 2mph /  3.2km/h 5mph /  8.0km/h 76% 0in /  0.0mm 0.00 W/m2
02:44 58.8 °F /  14.9 °C 51.3 °F /  10.7 °C 30.2in /  1023.2hPa ENE 4.9mph /  7.9km/h 5mph /  8.0km/h 76% 0in /  0.0mm 0.00 W/m2
02:49 58.8 °F /  14.9 °C 51.3 °F /  10.7 °C 30.2in /  1022.9hPa Calm   3mph /  4.8km/h 76% 0in /  0.0mm 0.00 W/m2
02:54 58.6 °F /  14.8 °C 51.1 °F /  10.6 °C 30.2in /  1022.9hPa ENE 2mph /  3.2km/h 7mph /  11.3km/h 76% 0in /  0.0mm 0.00 W/m2
02:59 58.8 °F /  14.9 °C 51.3 °F /  10.7 °C 30.2in /  1022.9hPa Calm   3mph /  4.8km/h 76% 0in /  0.0mm 0.00 W/m2
03:04 58.6 °F /  14.8 °C 51.1 °F /  10.6 °C 30.2in /  1022.9hPa NNE 6mph /  9.7km/h 6mph /  9.7km/h 76% 0in /  0.0mm 0.00 W/m2
03:09 58.6 °F /  14.8 °C 51.1 °F /  10.6 °C 30.2in /  1022.9hPa NE 2mph /  3.2km/h 4mph /  6.4km/h 76% 0in /  0.0mm 0.00 W/m2
03:14 58.6 °F /  14.8 °C 51.1 °F /  10.6 °C 30.2in /  1022.9hPa Calm   4mph /  6.4km/h 76% 0in /  0.0mm 0.00 W/m2
03:19 58.6 °F /  14.8 °C 51.1 °F /  10.6 °C 30.2in /  1022.9hPa NE 2.9mph /  4.7km/h 3mph /  4.8km/h 76% 0in /  0.0mm 0.00 W/m2
03:24 58.5 °F /  14.7 °C 50.9 °F /  10.5 °C 30.2in /  1022.9hPa NE 0.9mph /  1.4km/h 2mph /  3.2km/h 76% 0in /  0.0mm 0.00 W/m2
03:29 58.5 °F /  14.7 °C 50.9 °F /  10.5 °C 30.2in /  1022.6hPa Calm     76% 0in /  0.0mm 0.00 W/m2
03:34 58.5 °F /  14.7 °C 50.9 °F /  10.5 °C 30.2in /  1022.6hPa ENE 4.9mph /  7.9km/h 8mph /  12.9km/h 76% 0in /  0.0mm 0.00 W/m2
03:39 58.5 °F /  14.7 °C 50.5 °F /  10.3 °C 30.2in /  1022.6hPa NE 2mph /  3.2km/h 3mph /  4.8km/h 75% 0in /  0.0mm 0.00 W/m2
03:44 58.6 °F /  14.8 °C 50.7 °F /  10.4 °C 30.2in /  1022.6hPa NNE 4.9mph /  7.9km/h 8mph /  12.9km/h 75% 0in /  0.0mm 0.00 W/m2
03:49 58.6 °F /  14.8 °C 50.7 °F /  10.4 °C 30.2in /  1022.6hPa Calm   2mph /  3.2km/h 75% 0in /  0.0mm 0.00 W/m2
03:54 58.6 °F /  14.8 °C 50.7 °F /  10.4 °C 30.2in /  1022.6hPa NE 2mph /  3.2km/h 5mph /  8.0km/h 75% 0in /  0.0mm 0.00 W/m2
03:59 58.6 °F /  14.8 °C 50.7 °F /  10.4 °C 30.2in /  1022.6hPa Calm   3mph /  4.8km/h 75% 0in /  0.0mm 0.00 W/m2
04:04 58.6 °F /  14.8 °C 50.7 °F /  10.4 °C 30.2in /  1022.6hPa NE 0.9mph /  1.4km/h 1mph /  1.6km/h 75% 0in /  0.0mm 0.00 W/m2
04:09 58.6 °F /  14.8 °C 50.7 °F /  10.4 °C 30.2in /  1022.6hPa WNW 0.9mph /  1.4km/h 5mph /  8.0km/h 75% 0in /  0.0mm 0.00 W/m2
04:14 58.5 °F /  14.7 °C 50.9 °F /  10.5 °C 30.2in /  1022.6hPa WNW 2.9mph /  4.7km/h 4mph /  6.4km/h 76% 0in /  0.0mm 0.00 W/m2
04:19 58.1 °F /  14.5 °C 50.9 °F /  10.5 °C 30.2in /  1022.6hPa WNW 2mph /  3.2km/h 4mph /  6.4km/h 77% 0in /  0.0mm 0.00 W/m2
04:24 57.9 °F /  14.4 °C 51.1 °F /  10.6 °C 30.2in /  1022.6hPa WNW 0.9mph /  1.4km/h 2mph /  3.2km/h 78% 0in /  0.0mm 0.00 W/m2
04:29 57.7 °F /  14.3 °C 51.3 °F /  10.7 °C 30.2in /  1022.6hPa Calm   2mph /  3.2km/h 79% 0in /  0.0mm 0.00 W/m2
04:34 57.7 °F /  14.3 °C 51.3 °F /  10.7 °C 30.2in /  1022.2hPa Calm     79% 0in /  0.0mm 0.00 W/m2
04:39 57.7 °F /  14.3 °C 51.3 °F /  10.7 °C 30.2in /  1022.2hPa Calm     79% 0in /  0.0mm 0.00 W/m2
04:44 57.6 °F /  14.2 °C 51.4 °F /  10.8 °C 30.2in /  1022.2hPa Calm     80% 0in /  0.0mm 0.00 W/m2
04:49 57.6 °F /  14.2 °C 51.4 °F /  10.8 °C 30.2in /  1022.6hPa Calm   2mph /  3.2km/h 80% 0in /  0.0mm 0.00 W/m2
04:54 57.2 °F /  14.0 °C 51.1 °F /  10.6 °C 30.2in /  1022.6hPa WNW 2mph /  3.2km/h 3mph /  4.8km/h 80% 0in /  0.0mm 0.00 W/m2
04:59 57.2 °F /  14.0 °C 51.1 °F /  10.6 °C 30.2in /  1022.6hPa WNW 2mph /  3.2km/h 2mph /  3.2km/h 80% 0in /  0.0mm 0.00 W/m2
05:04 57.2 °F /  14.0 °C 51.1 °F /  10.6 °C 30.2in /  1022.6hPa Calm     80% 0in /  0.0mm 0.00 W/m2
05:09 57.2 °F /  14.0 °C 51.1 °F /  10.6 °C 30.2in /  1022.6hPa Calm     80% 0in /  0.0mm 0.00 W/m2
05:14 57.2 °F /  14.0 °C 51.4 °F /  10.8 °C 30.2in /  1022.6hPa Calm     81% 0in /  0.0mm 0.00 W/m2
05:19 57 °F /  13.9 °C 51.3 °F /  10.7 °C 30.2in /  1022.6hPa Calm     81% 0in /  0.0mm 5.00 W/m2
05:24 57 °F /  13.9 °C 51.3 °F /  10.7 °C 30.2in /  1022.6hPa Calm     81% 0in /  0.0mm 7.00 W/m2
05:29 57 °F /  13.9 °C 51.3 °F /  10.7 °C 30.2in /  1022.6hPa WNW 0.9mph /  1.4km/h 3mph /  4.8km/h 81% 0in /  0.0mm 9.00 W/m2
05:34 56.8 °F /  13.8 °C 51.1 °F /  10.6 °C 30.2in /  1022.6hPa Calm     81% 0in /  0.0mm 12.00 W/m2
05:39 57 °F /  13.9 °C 51.3 °F /  10.7 °C 30.2in /  1022.6hPa WNW 2mph /  3.2km/h 2mph /  3.2km/h 81% 0in /  0.0mm 14.00 W/m2
05:44 56.8 °F /  13.8 °C 51.1 °F /  10.6 °C 30.2in /  1022.6hPa Calm   1mph /  1.6km/h 81% 0in /  0.0mm 19.00 W/m2
05:49 56.8 °F /  13.8 °C 51.1 °F /  10.6 °C 30.2in /  1022.6hPa Calm     81% 0in /  0.0mm 19.00 W/m2
05:54 56.8 °F /  13.8 °C 51.1 °F /  10.6 °C 30.2in /  1022.6hPa SE 2mph /  3.2km/h 2mph /  3.2km/h 81% 0in /  0.0mm 19.00 W/m2
05:59 57 °F /  13.9 °C 51.3 °F /  10.7 °C 30.2in /  1022.6hPa SE 2.9mph /  4.7km/h 3mph /  4.8km/h 81% 0in /  0.0mm 23.00 W/m2
06:04 57 °F /  13.9 °C 51.3 °F /  10.7 °C 30.2in /  1022.6hPa Calm   2mph /  3.2km/h 81% 0in /  0.0mm 23.00 W/m2
06:09 57.2 °F /  14.0 °C 51.4 °F /  10.8 °C 30.2in /  1022.6hPa Calm     81% 0in /  0.0mm 25.00 W/m2
06:14 57.2 °F /  14.0 °C 51.4 °F /  10.8 °C 30.2in /  1022.6hPa Calm     81% 0in /  0.0mm 26.00 W/m2
06:19 57.4 °F /  14.1 °C 51.6 °F /  10.9 °C 30.2in /  1022.6hPa Calm     81% 0in /  0.0mm 26.00 W/m2
06:24 57.4 °F /  14.1 °C 51.6 °F /  10.9 °C 30.2in /  1022.6hPa Calm     81% 0in /  0.0mm 30.00 W/m2
06:29 57.6 °F /  14.2 °C 51.8 °F /  11.0 °C 30.2in /  1022.6hPa Calm     81% 0in /  0.0mm 32.00 W/m2
06:34 57.4 °F /  14.1 °C 51.3 °F /  10.7 °C 30.2in /  1022.6hPa Calm   1mph /  1.6km/h 80% 0in /  0.0mm 37.00 W/m2
06:39 57.6 °F /  14.2 °C 51.4 °F /  10.8 °C 30.2in /  1022.6hPa Calm   2mph /  3.2km/h 80% 0in /  0.0mm 40.00 W/m2
06:44 57.6 °F /  14.2 °C 51.4 °F /  10.8 °C 30.2in /  1022.6hPa SE 0.9mph /  1.4km/h 3mph /  4.8km/h 80% 0in /  0.0mm 42.00 W/m2
06:49 57.6 °F /  14.2 °C 51.8 °F /  11.0 °C 30.2in /  1022.6hPa Calm   1mph /  1.6km/h 81% 0in /  0.0mm 46.00 W/m2
06:54 57.6 °F /  14.2 °C 51.8 °F /  11.0 °C 30.2in /  1022.6hPa Calm   1mph /  1.6km/h 81% 0in /  0.0mm 51.00 W/m2
06:59 57.4 °F /  14.1 °C 51.6 °F /  10.9 °C 30.2in /  1022.9hPa SE 0.9mph /  1.4km/h 2mph /  3.2km/h 81% 0in /  0.0mm 49.00 W/m2
07:04 57.2 °F /  14.0 °C 51.4 °F /  10.8 °C 30.2in /  1022.9hPa Calm   1mph /  1.6km/h 81% 0in /  0.0mm 53.00 W/m2
07:09 57.2 °F /  14.0 °C 51.4 °F /  10.8 °C 30.2in /  1022.9hPa Calm   2mph /  3.2km/h 81% 0in /  0.0mm 53.00 W/m2
07:14 57.2 °F /  14.0 °C 51.4 °F /  10.8 °C 30.2in /  1022.9hPa Calm     81% 0in /  0.0mm 47.00 W/m2
07:19 57.4 °F /  14.1 °C 51.6 °F /  10.9 °C 30.2in /  1022.9hPa Calm   1mph /  1.6km/h 81% 0in /  0.0mm 49.00 W/m2
07:24 57.4 °F /  14.1 °C 51.6 °F /  10.9 °C 30.2in /  1022.6hPa Calm     81% 0in /  0.0mm 53.00 W/m2
07:29 57.4 °F /  14.1 °C 51.6 °F /  10.9 °C 30.2in /  1022.6hPa SE 2mph /  3.2km/h 2mph /  3.2km/h 81% 0in /  0.0mm 58.00 W/m2
07:34 57.6 °F /  14.2 °C 52.2 °F /  11.2 °C 30.2in /  1022.9hPa ESE 2mph /  3.2km/h 5mph /  8.0km/h 82% 0in /  0.0mm 65.00 W/m2
07:39 57.6 °F /  14.2 °C 51.8 °F /  11.0 °C 30.2in /  1022.6hPa Calm   1mph /  1.6km/h 81% 0in /  0.0mm 153.00 W/m2
07:44 57.7 °F /  14.3 °C 52.3 °F /  11.3 °C 30.2in /  1022.9hPa Calm   1mph /  1.6km/h 82% 0in /  0.0mm 216.00 W/m2
07:49 58.1 °F /  14.5 °C 52.7 °F /  11.5 °C 30.2in /  1022.9hPa Calm   3mph /  4.8km/h 82% 0in /  0.0mm 243.00 W/m2
07:54 58.5 °F /  14.7 °C 52.7 °F /  11.5 °C 30.2in /  1022.9hPa ESE 2.9mph /  4.7km/h 4mph /  6.4km/h 81% 0in /  0.0mm 253.00 W/m2
07:59 58.6 °F /  14.8 °C 52.9 °F /  11.6 °C 30.2in /  1022.9hPa Calm   4mph /  6.4km/h 81% 0in /  0.0mm 322.00 W/m2
08:04 59 °F /  15.0 °C 53.2 °F /  11.8 °C 30.2in /  1022.9hPa ESE 2.9mph /  4.7km/h 5mph /  8.0km/h 81% 0in /  0.0mm 346.00 W/m2
08:09 59.2 °F /  15.1 °C 53.1 °F /  11.7 °C 30.2in /  1022.9hPa SSE 4mph /  6.4km/h 4mph /  6.4km/h 80% 0in /  0.0mm 325.00 W/m2
08:14 59.5 °F /  15.3 °C 53.4 °F /  11.9 °C 30.2in /  1022.9hPa Calm   1mph /  1.6km/h 80% 0in /  0.0mm 290.00 W/m2
08:19 59.7 °F /  15.4 °C 53.2 °F /  11.8 °C 30.2in /  1022.9hPa ESE 2.9mph /  4.7km/h 6mph /  9.7km/h 79% 0in /  0.0mm 251.00 W/m2
08:24 59.9 °F /  15.5 °C 53.4 °F /  11.9 °C 30.2in /  1022.9hPa ESE 0.9mph /  1.4km/h 4mph /  6.4km/h 79% 0in /  0.0mm 336.00 W/m2
08:29 60.1 °F /  15.6 °C 53.6 °F /  12.0 °C 30.2in /  1022.9hPa ESE 2mph /  3.2km/h 5mph /  8.0km/h 79% 0in /  0.0mm 353.00 W/m2
08:34 60.1 °F /  15.6 °C 53.6 °F /  12.0 °C 30.2in /  1022.9hPa ESE 2mph /  3.2km/h 6mph /  9.7km/h 79% 0in /  0.0mm 360.00 W/m2
08:39 60.1 °F /  15.6 °C 53.6 °F /  12.0 °C 30.2in /  1022.9hPa SE 0.9mph /  1.4km/h 4mph /  6.4km/h 79% 0in /  0.0mm 378.00 W/m2
08:44 60.4 °F /  15.8 °C 54 °F /  12.2 °C 30.2in /  1022.9hPa SE 7mph /  11.3km/h 8mph /  12.9km/h 79% 0in /  0.0mm 394.00 W/m2
08:49 61.7 °F /  16.5 °C 54.9 °F /  12.7 °C 30.2in /  1022.9hPa SE 6mph /  9.7km/h 6mph /  9.7km/h 78% 0in /  0.0mm 403.00 W/m2
08:54 62.4 °F /  16.9 °C 55 °F /  12.8 °C 30.2in /  1022.9hPa SE 4mph /  6.4km/h 4mph /  6.4km/h 77% 0in /  0.0mm 323.00 W/m2
08:59 62.1 °F /  16.7 °C 54.3 °F /  12.4 °C 30.2in /  1022.9hPa SE 4mph /  6.4km/h 8mph /  12.9km/h 76% 0in /  0.0mm 315.00 W/m2
09:04 62.6 °F /  17.0 °C 55.6 °F /  13.1 °C 30.2in /  1022.9hPa ESE 6mph /  9.7km/h 7mph /  11.3km/h 78% 0in /  0.0mm 257.00 W/m2
09:09 63 °F /  17.2 °C 55.2 °F /  12.9 °C 30.2in /  1022.9hPa NNE 4mph /  6.4km/h 6mph /  9.7km/h 76% 0in /  0.0mm 466.00 W/m2
09:14 63.7 °F /  17.6 °C 55.6 °F /  13.1 °C 30.2in /  1022.9hPa East 2mph /  3.2km/h 8mph /  12.9km/h 75% 0in /  0.0mm 471.00 W/m2
09:19 64.2 °F /  17.9 °C 55.8 °F /  13.2 °C 30.2in /  1022.9hPa ESE 4mph /  6.4km/h 6mph /  9.7km/h 74% 0in /  0.0mm 485.00 W/m2
09:24 64.2 °F /  17.9 °C 55.8 °F /  13.2 °C 30.2in /  1022.9hPa ESE 4mph /  6.4km/h 7mph /  11.3km/h 74% 0in /  0.0mm 506.00 W/m2
09:29 64.2 °F /  17.9 °C 55.8 °F /  13.2 °C 30.2in /  1022.9hPa SE 2.9mph /  4.7km/h 10mph /  16.1km/h 74% 0in /  0.0mm 515.00 W/m2
09:34 63.9 °F /  17.7 °C 55.8 °F /  13.2 °C 30.2in /  1022.9hPa SE 6mph /  9.7km/h 8mph /  12.9km/h 75% 0in /  0.0mm 531.00 W/m2
09:39 64.2 °F /  17.9 °C 55.8 °F /  13.2 °C 30.2in /  1022.9hPa SE 2.9mph /  4.7km/h 10mph /  16.1km/h 74% 0in /  0.0mm 540.00 W/m2
09:44 64 °F /  17.8 °C 55.9 °F /  13.3 °C 30.2in /  1022.9hPa SSE 2mph /  3.2km/h 7mph /  11.3km/h 75% 0in /  0.0mm 554.00 W/m2
09:49 64.9 °F /  18.3 °C 56.8 °F /  13.8 °C 30.2in /  1022.9hPa ESE 4mph /  6.4km/h 9mph /  14.5km/h 75% 0in /  0.0mm 587.00 W/m2
09:54 65.7 °F /  18.7 °C 56.8 °F /  13.8 °C 30.2in /  1022.9hPa South 6mph /  9.7km/h 9mph /  14.5km/h 73% 0in /  0.0mm 592.00 W/m2
09:59 65.1 °F /  18.4 °C 56.3 °F /  13.5 °C 30.2in /  1022.9hPa SE 0.9mph /  1.4km/h 6mph /  9.7km/h 73% 0in /  0.0mm 642.00 W/m2
10:04 65.5 °F /  18.6 °C 56.3 °F /  13.5 °C 30.2in /  1022.9hPa SE 4.9mph /  7.9km/h 8mph /  12.9km/h 72% 0in /  0.0mm 645.00 W/m2
10:09 65.7 °F /  18.7 °C 56.3 °F /  13.5 °C 30.2in /  1022.9hPa Calm   8mph /  12.9km/h 72% 0in /  0.0mm 635.00 W/m2
10:14 65.7 °F /  18.7 °C 56.8 °F /  13.8 °C 30.2in /  1022.9hPa NNE 6mph /  9.7km/h 6mph /  9.7km/h 73% 0in /  0.0mm 633.00 W/m2
10:19 66.6 °F /  19.2 °C 56.5 °F /  13.6 °C 30.2in /  1022.9hPa ESE 8.1mph /  13.0km/h 8mph /  12.9km/h 70% 0in /  0.0mm 635.00 W/m2
10:24 66.7 °F /  19.3 °C 56.7 °F /  13.7 °C 30.2in /  1022.9hPa East 0.9mph /  1.4km/h 9mph /  14.5km/h 70% 0in /  0.0mm 638.00 W/m2
10:29 66.9 °F /  19.4 °C 56.8 °F /  13.8 °C 30.2in /  1022.9hPa ESE 4.9mph /  7.9km/h 9mph /  14.5km/h 70% 0in /  0.0mm 650.00 W/m2
10:34 67.3 °F /  19.6 °C 56.3 °F /  13.5 °C 30.2in /  1022.9hPa ESE 4.9mph /  7.9km/h 10mph /  16.1km/h 68% 0in /  0.0mm 661.00 W/m2
10:39 66.4 °F /  19.1 °C 56.3 °F /  13.5 °C 30.2in /  1022.9hPa SE 4mph /  6.4km/h 7mph /  11.3km/h 70% 0in /  0.0mm 694.00 W/m2
10:44 67.6 °F /  19.8 °C 57.6 °F /  14.2 °C 30.2in /  1022.9hPa Calm   5mph /  8.0km/h 70% 0in /  0.0mm 701.00 W/m2
10:49 69.3 °F /  20.7 °C 57.9 °F /  14.4 °C 30.2in /  1022.9hPa East 6.9mph /  11.1km/h 7mph /  11.3km/h 67% 0in /  0.0mm 700.00 W/m2
10:54 69.3 °F /  20.7 °C 56.5 °F /  13.6 °C 30.2in /  1022.9hPa SSE 2mph /  3.2km/h 5mph /  8.0km/h 64% 0in /  0.0mm 729.00 W/m2
10:59 69.6 °F /  20.9 °C 57.4 °F /  14.1 °C 30.2in /  1022.9hPa ESE 4mph /  6.4km/h 8mph /  12.9km/h 65% 0in /  0.0mm 731.00 W/m2
11:04 70.3 °F /  21.3 °C 57.6 °F /  14.2 °C 30.2in /  1022.9hPa ESE 4.9mph /  7.9km/h 7mph /  11.3km/h 64% 0in /  0.0mm 809.00 W/m2
11:09 70.5 °F /  21.4 °C 58.1 °F /  14.5 °C 30.2in /  1022.9hPa NNE 2.9mph /  4.7km/h 7mph /  11.3km/h 65% 0in /  0.0mm 833.00 W/m2
11:14 69.6 °F /  20.9 °C 59 °F /  15.0 °C 30.2in /  1022.9hPa SSE 0.9mph /  1.4km/h 9mph /  14.5km/h 69% 0in /  0.0mm 853.00 W/m2
11:19 70.2 °F /  21.2 °C 58.6 °F /  14.8 °C 30.2in /  1022.9hPa South 4.9mph /  7.9km/h 10mph /  16.1km/h 67% 0in /  0.0mm 912.00 W/m2
11:24 70 °F /  21.1 °C 58.5 °F /  14.7 °C 30.2in /  1022.9hPa SSE 2mph /  3.2km/h 8mph /  12.9km/h 67% 0in /  0.0mm 916.00 W/m2
11:29 70.2 °F /  21.2 °C 58.6 °F /  14.8 °C 30.2in /  1022.9hPa NE 2mph /  3.2km/h 9mph /  14.5km/h 67% 0in /  0.0mm 313.00 W/m2
11:34 70.5 °F /  21.4 °C 59.4 °F /  15.2 °C 30.2in /  1022.9hPa East 2mph /  3.2km/h 7mph /  11.3km/h 68% 0in /  0.0mm 951.00 W/m2
11:39 70.2 °F /  21.2 °C 59.2 °F /  15.1 °C 30.2in /  1022.9hPa SE 2mph /  3.2km/h 9mph /  14.5km/h 68% 0in /  0.0mm 838.00 W/m2
11:44 71.2 °F /  21.8 °C 59.7 °F /  15.4 °C 30.2in /  1022.9hPa NE 2.9mph /  4.7km/h 7mph /  11.3km/h 67% 0in /  0.0mm 858.00 W/m2
11:49 71.6 °F /  22.0 °C 59.2 °F /  15.1 °C 30.2in /  1022.9hPa SE 2mph /  3.2km/h 6mph /  9.7km/h 65% 0in /  0.0mm 283.00 W/m2
11:54 70.5 °F /  21.4 °C 59 °F /  15.0 °C 30.2in /  1022.9hPa ESE 2mph /  3.2km/h 11mph /  17.7km/h 67% 0in /  0.0mm 977.00 W/m2
11:59 70.5 °F /  21.4 °C 59 °F /  15.0 °C 30.2in /  1022.9hPa SSE 2.9mph /  4.7km/h 7mph /  11.3km/h 67% 0in /  0.0mm 954.00 W/m2
12:04 72.1 °F /  22.3 °C 60.1 °F /  15.6 °C 30.2in /  1022.9hPa East 6.9mph /  11.1km/h 8mph /  12.9km/h 66% 0in /  0.0mm 1028.00 W/m2
12:09 72.1 °F /  22.3 °C 59.4 °F /  15.2 °C 30.2in /  1022.9hPa SE 4.9mph /  7.9km/h 6mph /  9.7km/h 64% 0in /  0.0mm 376.00 W/m2
12:14 71.4 °F /  21.9 °C 59.5 °F /  15.3 °C 30.2in /  1022.9hPa East 0.9mph /  1.4km/h 4mph /  6.4km/h 66% 0in /  0.0mm 940.00 W/m2
12:19 72.9 °F /  22.7 °C 59.9 °F /  15.5 °C 30.2in /  1022.9hPa East 2mph /  3.2km/h 8mph /  12.9km/h 64% 0in /  0.0mm 1004.00 W/m2
12:24 72 °F /  22.2 °C 59.2 °F /  15.1 °C 30.2in /  1022.9hPa East 11mph /  17.7km/h 11mph /  17.7km/h 64% 0in /  0.0mm 970.00 W/m2
12:29 71.4 °F /  21.9 °C 59 °F /  15.0 °C 30.2in /  1022.9hPa East 4.9mph /  7.9km/h 10mph /  16.1km/h 65% 0in /  0.0mm 334.00 W/m2
12:34 70.7 °F /  21.5 °C 58.8 °F /  14.9 °C 30.2in /  1022.9hPa NE 2mph /  3.2km/h 7mph /  11.3km/h 66% 0in /  0.0mm 406.00 W/m2
12:39 69.6 °F /  20.9 °C 58.1 °F /  14.5 °C 30.2in /  1022.6hPa NE 0.9mph /  1.4km/h 11mph /  17.7km/h 67% 0in /  0.0mm 373.00 W/m2
12:44 69.6 °F /  20.9 °C 58.1 °F /  14.5 °C 30.2in /  1022.6hPa ENE 6.9mph /  11.1km/h 10mph /  16.1km/h 67% 0in /  0.0mm 506.00 W/m2
12:49 69.4 °F /  20.8 °C 58.5 °F /  14.7 °C 30.2in /  1022.9hPa ENE 8.9mph /  14.3km/h 12mph /  19.3km/h 68% 0in /  0.0mm 281.00 W/m2
12:54 70.3 °F /  21.3 °C 59.4 °F /  15.2 °C 30.2in /  1022.6hPa East 8.1mph /  13.0km/h 8mph /  12.9km/h 68% 0in /  0.0mm 241.00 W/m2
12:59 70.2 °F /  21.2 °C 58.3 °F /  14.6 °C 30.2in /  1022.9hPa NNE 4mph /  6.4km/h 11mph /  17.7km/h 66% 0in /  0.0mm 260.00 W/m2
13:04 70.3 °F /  21.3 °C 58.8 °F /  14.9 °C 30.2in /  1022.9hPa NE 4.9mph /  7.9km/h 9mph /  14.5km/h 67% 0in /  0.0mm 969.00 W/m2
13:09 70.9 °F /  21.6 °C 58.5 °F /  14.7 °C 30.2in /  1022.9hPa East 6mph /  9.7km/h 8mph /  12.9km/h 65% 0in /  0.0mm 304.00 W/m2
13:14 71.6 °F /  22.0 °C 58.3 °F /  14.6 °C 30.2in /  1022.9hPa ENE 4.9mph /  7.9km/h 7mph /  11.3km/h 63% 0in /  0.0mm 341.00 W/m2
13:19 71.6 °F /  22.0 °C 57.9 °F /  14.4 °C 30.2in /  1022.6hPa ENE 0.9mph /  1.4km/h 6mph /  9.7km/h 62% 0in /  0.0mm 1002.00 W/m2
13:24 72 °F /  22.2 °C 57.7 °F /  14.3 °C 30.2in /  1022.6hPa East 2.9mph /  4.7km/h 5mph /  8.0km/h 61% 0in /  0.0mm 336.00 W/m2
13:29 71.2 °F /  21.8 °C 57.6 °F /  14.2 °C 30.2in /  1022.6hPa SSE 2.9mph /  4.7km/h 9mph /  14.5km/h 62% 0in /  0.0mm 1002.00 W/m2
13:34 72.3 °F /  22.4 °C 58.6 °F /  14.8 °C 30.2in /  1022.6hPa Calm   7mph /  11.3km/h 62% 0in /  0.0mm 946.00 W/m2
13:39 73.2 °F /  22.9 °C 59 °F /  15.0 °C 30.2in /  1022.6hPa NE 2mph /  3.2km/h 6mph /  9.7km/h 61% 0in /  0.0mm 1042.00 W/m2
13:44 73.4 °F /  23.0 °C 58.6 °F /  14.8 °C 30.2in /  1022.6hPa NE 2.9mph /  4.7km/h 5mph /  8.0km/h 60% 0in /  0.0mm 350.00 W/m2
13:49 74.1 °F /  23.4 °C 58.8 °F /  14.9 °C 30.2in /  1022.6hPa NE 6mph /  9.7km/h 11mph /  17.7km/h 59% 0in /  0.0mm 995.00 W/m2
13:54 73.2 °F /  22.9 °C 58.1 °F /  14.5 °C 30.2in /  1022.6hPa Calm   8mph /  12.9km/h 59% 0in /  0.0mm 250.00 W/m2
13:59 73 °F /  22.8 °C 57.9 °F /  14.4 °C 30.2in /  1022.6hPa ESE 2.9mph /  4.7km/h 5mph /  8.0km/h 59% 0in /  0.0mm 267.00 W/m2
14:04 73.9 °F /  23.3 °C 58.6 °F /  14.8 °C 30.2in /  1022.6hPa Calm   5mph /  8.0km/h 59% 0in /  0.0mm 817.00 W/m2
14:09 74.5 °F /  23.6 °C 58.3 °F /  14.6 °C 30.2in /  1022.6hPa NNE 4mph /  6.4km/h 7mph /  11.3km/h 57% 0in /  0.0mm 963.00 W/m2
14:14 74.5 °F /  23.6 °C 57.7 °F /  14.3 °C 30.2in /  1022.6hPa NNE 10mph /  16.1km/h 11mph /  17.7km/h 56% 0in /  0.0mm 926.00 W/m2
14:19 73 °F /  22.8 °C 57.9 °F /  14.4 °C 30.2in /  1022.2hPa NE 8.1mph /  13.0km/h 11mph /  17.7km/h 59% 0in /  0.0mm 900.00 W/m2
14:24 73.6 °F /  23.1 °C 58.8 °F /  14.9 °C 30.2in /  1022.2hPa NE 2mph /  3.2km/h 9mph /  14.5km/h 60% 0in /  0.0mm 881.00 W/m2
14:29 74.5 °F /  23.6 °C 59.2 °F /  15.1 °C 30.2in /  1022.2hPa ESE 11mph /  17.7km/h 11mph /  17.7km/h 59% 0in /  0.0mm 888.00 W/m2
14:34 74.3 °F /  23.5 °C 58.6 °F /  14.8 °C 30.2in /  1022.2hPa ENE 8.1mph /  13.0km/h 12mph /  19.3km/h 58% 0in /  0.0mm 937.00 W/m2
14:39 74.7 °F /  23.7 °C 58.8 °F /  14.9 °C 30.2in /  1022.2hPa NNE 2mph /  3.2km/h 7mph /  11.3km/h 58% 0in /  0.0mm 914.00 W/m2
14:44 74.3 °F /  23.5 °C 59 °F /  15.0 °C 30.2in /  1022.2hPa NE 6.9mph /  11.1km/h 12mph /  19.3km/h 59% 0in /  0.0mm 888.00 W/m2
14:49 75 °F /  23.9 °C 58.8 °F /  14.9 °C 30.2in /  1022.2hPa NNE 6.9mph /  11.1km/h 7mph /  11.3km/h 57% 0in /  0.0mm 237.00 W/m2
14:54 73.4 °F /  23.0 °C 58.6 °F /  14.8 °C 30.2in /  1022.2hPa East 2.9mph /  4.7km/h 6mph /  9.7km/h 60% 0in /  0.0mm 830.00 W/m2
14:59 74.8 °F /  23.8 °C 59.5 °F /  15.3 °C 30.2in /  1022.2hPa NE 8.9mph /  14.3km/h 9mph /  14.5km/h 59% 0in /  0.0mm 867.00 W/m2
15:04 75.2 °F /  24.0 °C 59.4 °F /  15.2 °C 30.2in /  1022.2hPa Calm   5mph /  8.0km/h 58% 0in /  0.0mm 257.00 W/m2
15:09 74.8 °F /  23.8 °C 59 °F /  15.0 °C 30.2in /  1022.2hPa NNE 8.1mph /  13.0km/h 9mph /  14.5km/h 58% 0in /  0.0mm 847.00 W/m2
15:14 74.3 °F /  23.5 °C 59 °F /  15.0 °C 30.2in /  1022.2hPa ENE 8.1mph /  13.0km/h 8mph /  12.9km/h 59% 0in /  0.0mm 830.00 W/m2
15:19 73.2 °F /  22.9 °C 58.5 °F /  14.7 °C 30.2in /  1022.2hPa Calm   15mph /  24.1km/h 60% 0in /  0.0mm 854.00 W/m2
15:24 74.1 °F /  23.4 °C 58.8 °F /  14.9 °C 30.2in /  1022.2hPa East 4.9mph /  7.9km/h 8mph /  12.9km/h 59% 0in /  0.0mm 958.00 W/m2
15:29 75.2 °F /  24.0 °C 59.4 °F /  15.2 °C 30.2in /  1022.2hPa Calm   8mph /  12.9km/h 58% 0in /  0.0mm 911.00 W/m2
15:34 75 °F /  23.9 °C 58.8 °F /  14.9 °C 30.2in /  1022.2hPa NE 8.1mph /  13.0km/h 10mph /  16.1km/h 57% 0in /  0.0mm 278.00 W/m2
15:39 73.6 °F /  23.1 °C 58.8 °F /  14.9 °C 30.2in /  1022.2hPa ENE 8.9mph /  14.3km/h 10mph /  16.1km/h 60% 0in /  0.0mm 868.00 W/m2
15:44 73.8 °F /  23.2 °C 59.5 °F /  15.3 °C 30.2in /  1022.2hPa ENE 6.9mph /  11.1km/h 7mph /  11.3km/h 61% 0in /  0.0mm 578.00 W/m2
15:49 75 °F /  23.9 °C 59.7 °F /  15.4 °C 30.2in /  1022.2hPa ENE 4.9mph /  7.9km/h 10mph /  16.1km/h 59% 0in /  0.0mm 784.00 W/m2
15:54 74.7 °F /  23.7 °C 59.4 °F /  15.2 °C 30.2in /  1022.2hPa North 2.9mph /  4.7km/h 10mph /  16.1km/h 59% 0in /  0.0mm 733.00 W/m2
15:59 74.7 °F /  23.7 °C 59.9 °F /  15.5 °C 30.2in /  1022.2hPa NE 14mph /  22.5km/h 14mph /  22.5km/h 60% 0in /  0.0mm 751.00 W/m2
16:04 75.6 °F /  24.2 °C 59.2 °F /  15.1 °C 30.2in /  1022.2hPa NNE 2.9mph /  4.7km/h 7mph /  11.3km/h 57% 0in /  0.0mm 729.00 W/m2
16:09 76.1 °F /  24.5 °C 59.7 °F /  15.4 °C 30.2in /  1022.2hPa SE 8.9mph /  14.3km/h 12mph /  19.3km/h 57% 0in /  0.0mm 747.00 W/m2
16:14 75.4 °F /  24.1 °C 58.6 °F /  14.8 °C 30.2in /  1022.2hPa East 2mph /  3.2km/h 12mph /  19.3km/h 56% 0in /  0.0mm 190.00 W/m2
16:19 74.5 °F /  23.6 °C 58.8 °F /  14.9 °C 30.2in /  1022.2hPa Calm   7mph /  11.3km/h 58% 0in /  0.0mm 729.00 W/m2
16:24 74.3 °F /  23.5 °C 59 °F /  15.0 °C 30.2in /  1022.2hPa ENE 4mph /  6.4km/h 8mph /  12.9km/h 59% 0in /  0.0mm 390.00 W/m2
16:29 74.7 °F /  23.7 °C 58.8 °F /  14.9 °C 30.2in /  1022.2hPa NE 8.9mph /  14.3km/h 9mph /  14.5km/h 58% 0in /  0.0mm 253.00 W/m2
16:34 72.7 °F /  22.6 °C 57.9 °F /  14.4 °C 30.2in /  1022.6hPa NNE 4mph /  6.4km/h 11mph /  17.7km/h 60% 0in /  0.0mm 192.00 W/m2
16:39 71.8 °F /  22.1 °C 58.1 °F /  14.5 °C 30.2in /  1022.2hPa ENE 2.9mph /  4.7km/h 12mph /  19.3km/h 62% 0in /  0.0mm 687.00 W/m2
16:44 72.3 °F /  22.4 °C 58.1 °F /  14.5 °C 30.2in /  1022.2hPa East 8.1mph /  13.0km/h 9mph /  14.5km/h 61% 0in /  0.0mm 659.00 W/m2
16:49 72.9 °F /  22.7 °C 58.6 °F /  14.8 °C 30.2in /  1022.2hPa East 2mph /  3.2km/h 7mph /  11.3km/h 61% 0in /  0.0mm 624.00 W/m2
16:54 73 °F /  22.8 °C 57.9 °F /  14.4 °C 30.2in /  1022.2hPa NE 6.9mph /  11.1km/h 14mph /  22.5km/h 59% 0in /  0.0mm 617.00 W/m2
16:59 73 °F /  22.8 °C 58.3 °F /  14.6 °C 30.2in /  1022.2hPa ESE 6.9mph /  11.1km/h 7mph /  11.3km/h 60% 0in /  0.0mm 598.00 W/m2
17:04 73.4 °F /  23.0 °C 58.3 °F /  14.6 °C 30.2in /  1022.2hPa SSE 4mph /  6.4km/h 7mph /  11.3km/h 59% 0in /  0.0mm 582.00 W/m2
17:09 72.9 °F /  22.7 °C 58.1 °F /  14.5 °C 30.2in /  1022.2hPa ENE 2mph /  3.2km/h 14mph /  22.5km/h 60% 0in /  0.0mm 594.00 W/m2
17:14 73.2 °F /  22.9 °C 58.1 °F /  14.5 °C 30.2in /  1022.2hPa ENE 0.9mph /  1.4km/h 13mph /  20.9km/h 59% 0in /  0.0mm 577.00 W/m2
17:19 73 °F /  22.8 °C 57.9 °F /  14.4 °C 30.2in /  1022.2hPa NE 4mph /  6.4km/h 10mph /  16.1km/h 59% 0in /  0.0mm 571.00 W/m2
17:24 72.9 °F /  22.7 °C 57.2 °F /  14.0 °C 30.2in /  1022.2hPa NE 4.9mph /  7.9km/h 11mph /  17.7km/h 58% 0in /  0.0mm 575.00 W/m2
17:29 73.4 °F /  23.0 °C 57.7 °F /  14.3 °C 30.2in /  1022.2hPa East 4.9mph /  7.9km/h 11mph /  17.7km/h 58% 0in /  0.0mm 584.00 W/m2
17:34 73.4 °F /  23.0 °C 57.7 °F /  14.3 °C 30.2in /  1022.2hPa ESE 6.9mph /  11.1km/h 9mph /  14.5km/h 58% 0in /  0.0mm 575.00 W/m2
17:39 73.4 °F /  23.0 °C 57.7 °F /  14.3 °C 30.2in /  1022.2hPa NE 8.1mph /  13.0km/h 8mph /  12.9km/h 58% 0in /  0.0mm 313.00 W/m2
17:44 73 °F /  22.8 °C 56.8 °F /  13.8 °C 30.2in /  1022.2hPa East 4mph /  6.4km/h 9mph /  14.5km/h 57% 0in /  0.0mm 448.00 W/m2
17:49 72.5 °F /  22.5 °C 56.5 °F /  13.6 °C 30.2in /  1022.2hPa ESE 0.9mph /  1.4km/h 9mph /  14.5km/h 57% 0in /  0.0mm 476.00 W/m2
17:54 72.9 °F /  22.7 °C 56.7 °F /  13.7 °C 30.2in /  1022.2hPa ENE 4.9mph /  7.9km/h 5mph /  8.0km/h 57% 0in /  0.0mm 466.00 W/m2
17:59 73.2 °F /  22.9 °C 56.7 °F /  13.7 °C 30.2in /  1022.2hPa NE 2mph /  3.2km/h 13mph /  20.9km/h 56% 0in /  0.0mm 448.00 W/m2
18:04 73 °F /  22.8 °C 56.8 °F /  13.8 °C 30.2in /  1022.2hPa SE 2.9mph /  4.7km/h 7mph /  11.3km/h 57% 0in /  0.0mm 434.00 W/m2
18:09 73.8 °F /  23.2 °C 57 °F /  13.9 °C 30.2in /  1022.2hPa NE 6.9mph /  11.1km/h 9mph /  14.5km/h 56% 0in /  0.0mm 420.00 W/m2
18:14 73.4 °F /  23.0 °C 57.2 °F /  14.0 °C 30.2in /  1022.2hPa East 2.9mph /  4.7km/h 11mph /  17.7km/h 57% 0in /  0.0mm 408.00 W/m2
18:19 73.6 °F /  23.1 °C 56.8 °F /  13.8 °C 30.2in /  1022.2hPa East 0.9mph /  1.4km/h 7mph /  11.3km/h 56% 0in /  0.0mm 385.00 W/m2
18:24 73.8 °F /  23.2 °C 56.7 °F /  13.7 °C 30.2in /  1022.2hPa ESE 2mph /  3.2km/h 6mph /  9.7km/h 55% 0in /  0.0mm 373.00 W/m2
18:29 73.6 °F /  23.1 °C 56.8 °F /  13.8 °C 30.2in /  1022.2hPa East 6mph /  9.7km/h 7mph /  11.3km/h 56% 0in /  0.0mm 360.00 W/m2
18:34 73.9 °F /  23.3 °C 56.8 °F /  13.8 °C 30.2in /  1022.2hPa Calm   7mph /  11.3km/h 55% 0in /  0.0mm 346.00 W/m2
18:39 73.8 °F /  23.2 °C 56.7 °F /  13.7 °C 30.2in /  1022.2hPa ESE 2mph /  3.2km/h 3mph /  4.8km/h 55% 0in /  0.0mm 336.00 W/m2
18:44 73.8 °F /  23.2 °C 57 °F /  13.9 °C 30.2in /  1022.2hPa NNE 4.9mph /  7.9km/h 6mph /  9.7km/h 56% 0in /  0.0mm 316.00 W/m2
18:49 73.4 °F /  23.0 °C 57.2 °F /  14.0 °C 30.2in /  1022.2hPa ENE 0.9mph /  1.4km/h 5mph /  8.0km/h 57% 0in /  0.0mm 306.00 W/m2
18:54 73.9 °F /  23.3 °C 56.8 °F /  13.8 °C 30.2in /  1022.2hPa ENE 6.9mph /  11.1km/h 9mph /  14.5km/h 55% 0in /  0.0mm 292.00 W/m2
18:59 74.1 °F /  23.4 °C 57.4 °F /  14.1 °C 30.2in /  1021.9hPa East 0.9mph /  1.4km/h 6mph /  9.7km/h 56% 0in /  0.0mm 281.00 W/m2
19:04 73.8 °F /  23.2 °C 57 °F /  13.9 °C 30.2in /  1021.9hPa SE 0.9mph /  1.4km/h 7mph /  11.3km/h 56% 0in /  0.0mm 267.00 W/m2
19:09 73.2 °F /  22.9 °C 57 °F /  13.9 °C 30.2in /  1021.9hPa SSE 2.9mph /  4.7km/h 8mph /  12.9km/h 57% 0in /  0.0mm 251.00 W/m2
19:14 72.5 °F /  22.5 °C 57.4 °F /  14.1 °C 30.2in /  1021.9hPa East 4mph /  6.4km/h 5mph /  8.0km/h 59% 0in /  0.0mm 237.00 W/m2
19:19 72.3 °F /  22.4 °C 57.7 °F /  14.3 °C 30.2in /  1021.9hPa ESE 2mph /  3.2km/h 7mph /  11.3km/h 60% 0in /  0.0mm 227.00 W/m2
19:24 72.9 °F /  22.7 °C 57.7 °F /  14.3 °C 30.2in /  1021.9hPa East 2mph /  3.2km/h 6mph /  9.7km/h 59% 0in /  0.0mm 213.00 W/m2
19:29 72.7 °F /  22.6 °C 57 °F /  13.9 °C 30.2in /  1021.9hPa ESE 2mph /  3.2km/h 5mph /  8.0km/h 58% 0in /  0.0mm 197.00 W/m2
19:34 72.9 °F /  22.7 °C 56.7 °F /  13.7 °C 30.2in /  1021.9hPa ESE 2mph /  3.2km/h 3mph /  4.8km/h 57% 0in /  0.0mm 179.00 W/m2
19:39 72.9 °F /  22.7 °C 56.7 °F /  13.7 °C 30.2in /  1021.9hPa NE 2.9mph /  4.7km/h 4mph /  6.4km/h 57% 0in /  0.0mm 165.00 W/m2
19:44 72.3 °F /  22.4 °C 56.3 °F /  13.5 °C 30.2in /  1021.9hPa ENE 4mph /  6.4km/h 9mph /  14.5km/h 57% 0in /  0.0mm 151.00 W/m2
19:49 72.3 °F /  22.4 °C 56.7 °F /  13.7 °C 30.2in /  1021.9hPa NE 2mph /  3.2km/h 7mph /  11.3km/h 58% 0in /  0.0mm 137.00 W/m2
19:54 72.3 °F /  22.4 °C 57.2 °F /  14.0 °C 30.2in /  1021.9hPa Calm   2mph /  3.2km/h 59% 0in /  0.0mm 123.00 W/m2
19:59 72.1 °F /  22.3 °C 57 °F /  13.9 °C 30.2in /  1021.9hPa NE 2.9mph /  4.7km/h 7mph /  11.3km/h 59% 0in /  0.0mm 111.00 W/m2
20:04 72 °F /  22.2 °C 57.4 °F /  14.1 °C 30.2in /  1021.6hPa NE 0.9mph /  1.4km/h 3mph /  4.8km/h 60% 0in /  0.0mm 98.00 W/m2
20:09 71.6 °F /  22.0 °C 57 °F /  13.9 °C 30.2in /  1021.9hPa NE 2.9mph /  4.7km/h 5mph /  8.0km/h 60% 0in /  0.0mm 86.00 W/m2
20:14 71.6 °F /  22.0 °C 57.4 °F /  14.1 °C 30.2in /  1021.9hPa East 4.9mph /  7.9km/h 7mph /  11.3km/h 61% 0in /  0.0mm 74.00 W/m2
20:19 71.6 °F /  22.0 °C 57.4 °F /  14.1 °C 30.2in /  1021.9hPa ENE 0.9mph /  1.4km/h 3mph /  4.8km/h 61% 0in /  0.0mm 62.00 W/m2
20:24 72 °F /  22.2 °C 57.7 °F /  14.3 °C 30.2in /  1021.9hPa Calm   4mph /  6.4km/h 61% 0in /  0.0mm 51.00 W/m2
20:29 71.8 °F /  22.1 °C 57.6 °F /  14.2 °C 30.2in /  1021.9hPa NNE 0.9mph /  1.4km/h 5mph /  8.0km/h 61% 0in /  0.0mm 42.00 W/m2
20:34 71.1 °F /  21.7 °C 57.4 °F /  14.1 °C 30.2in /  1021.9hPa ENE 2mph /  3.2km/h 8mph /  12.9km/h 62% 0in /  0.0mm 33.00 W/m2
20:39 70.5 °F /  21.4 °C 57.4 °F /  14.1 °C 30.2in /  1021.9hPa NNE 2.9mph /  4.7km/h 8mph /  12.9km/h 63% 0in /  0.0mm 25.00 W/m2
20:44 70.2 °F /  21.2 °C 57.4 °F /  14.1 °C 30.2in /  1021.9hPa NE 4mph /  6.4km/h 7mph /  11.3km/h 64% 0in /  0.0mm 21.00 W/m2
20:49 69.4 °F /  20.8 °C 57.2 °F /  14.0 °C 30.2in /  1021.9hPa NE 4mph /  6.4km/h 12mph /  19.3km/h 65% 0in /  0.0mm 18.00 W/m2
20:54 69.1 °F /  20.6 °C 57.2 °F /  14.0 °C 30.2in /  1022.2hPa NE 0.9mph /  1.4km/h 3mph /  4.8km/h 66% 0in /  0.0mm 16.00 W/m2
20:59 68.7 °F /  20.4 °C 57.4 °F /  14.1 °C 30.2in /  1022.2hPa East 2.9mph /  4.7km/h 6mph /  9.7km/h 67% 0in /  0.0mm 12.00 W/m2
21:04 68.4 °F /  20.2 °C 57 °F /  13.9 °C 30.2in /  1022.2hPa ESE 2.9mph /  4.7km/h 10mph /  16.1km/h 67% 0in /  0.0mm 11.00 W/m2
21:09 67.6 °F /  19.8 °C 56.3 °F /  13.5 °C 30.2in /  1022.2hPa SE 2mph /  3.2km/h 7mph /  11.3km/h 67% 0in /  0.0mm 9.00 W/m2
21:14 67.3 °F /  19.6 °C 56.3 °F /  13.5 °C 30.2in /  1022.2hPa ESE 4mph /  6.4km/h 4mph /  6.4km/h 68% 0in /  0.0mm 5.00 W/m2
21:19 67.1 °F /  19.5 °C 56.1 °F /  13.4 °C 30.2in /  1022.2hPa East 0.9mph /  1.4km/h 5mph /  8.0km/h 68% 0in /  0.0mm 5.00 W/m2
21:24 66.9 °F /  19.4 °C 56.5 °F /  13.6 °C 30.2in /  1022.2hPa East 2.9mph /  4.7km/h 5mph /  8.0km/h 69% 0in /  0.0mm 0.00 W/m2
21:29 66.7 °F /  19.3 °C 56.3 °F /  13.5 °C 30.2in /  1022.2hPa Calm     69% 0in /  0.0mm 0.00 W/m2
21:34 66.6 °F /  19.2 °C 56.1 °F /  13.4 °C 30.2in /  1022.2hPa East 0.9mph /  1.4km/h 3mph /  4.8km/h 69% 0in /  0.0mm 0.00 W/m2
21:39 66.4 °F /  19.1 °C 56.3 °F /  13.5 °C 30.2in /  1022.2hPa ENE 0.9mph /  1.4km/h 1mph /  1.6km/h 70% 0in /  0.0mm 0.00 W/m2
21:44 66.2 °F /  19.0 °C 56.1 °F /  13.4 °C 30.2in /  1022.2hPa Calm   5mph /  8.0km/h 70% 0in /  0.0mm 0.00 W/m2
21:49 66 °F /  18.9 °C 55.9 °F /  13.3 °C 30.2in /  1022.6hPa Calm   5mph /  8.0km/h 70% 0in /  0.0mm 0.00 W/m2
21:54 65.8 °F /  18.8 °C 55.8 °F /  13.2 °C 30.2in /  1022.6hPa ENE 2mph /  3.2km/h 3mph /  4.8km/h 70% 0in /  0.0mm 0.00 W/m2
21:59 65.3 °F /  18.5 °C 55.2 °F /  12.9 °C 30.2in /  1022.6hPa Calm   5mph /  8.0km/h 70% 0in /  0.0mm 0.00 W/m2
22:04 65.1 °F /  18.4 °C 55.4 °F /  13.0 °C 30.2in /  1022.6hPa Calm   4mph /  6.4km/h 71% 0in /  0.0mm 0.00 W/m2
22:09 64.9 °F /  18.3 °C 55.4 °F /  13.0 °C 30.2in /  1022.6hPa Calm   5mph /  8.0km/h 71% 0in /  0.0mm 0.00 W/m2
22:14 64.8 °F /  18.2 °C 55.2 °F /  12.9 °C 30.2in /  1022.6hPa Calm   3mph /  4.8km/h 71% 0in /  0.0mm 0.00 W/m2
22:19 64.6 °F /  18.1 °C 55 °F /  12.8 °C 30.2in /  1022.6hPa Calm     71% 0in /  0.0mm 0.00 W/m2
22:24 64.4 °F /  18.0 °C 55.2 °F /  12.9 °C 30.2in /  1022.6hPa ESE 0.9mph /  1.4km/h 2mph /  3.2km/h 72% 0in /  0.0mm 0.00 W/m2
22:29 64.2 °F /  17.9 °C 55 °F /  12.8 °C 30.2in /  1022.6hPa ENE 2.9mph /  4.7km/h 3mph /  4.8km/h 72% 0in /  0.0mm 0.00 W/m2
22:34 64 °F /  17.8 °C 54.9 °F /  12.7 °C 30.2in /  1022.6hPa East 0.9mph /  1.4km/h 2mph /  3.2km/h 72% 0in /  0.0mm 0.00 W/m2
22:39 63.9 °F /  17.7 °C 54.7 °F /  12.6 °C 30.2in /  1022.6hPa Calm   3mph /  4.8km/h 72% 0in /  0.0mm 0.00 W/m2
22:44 63.7 °F /  17.6 °C 54.5 °F /  12.5 °C 30.2in /  1022.6hPa ENE 2mph /  3.2km/h 2mph /  3.2km/h 72% 0in /  0.0mm 0.00 W/m2
22:49 63.3 °F /  17.4 °C 54.5 °F /  12.5 °C 30.2in /  1022.9hPa Calm   4mph /  6.4km/h 73% 0in /  0.0mm 0.00 W/m2
22:54 63.1 °F /  17.3 °C 54.3 °F /  12.4 °C 30.2in /  1022.9hPa NE 2mph /  3.2km/h 7mph /  11.3km/h 73% 0in /  0.0mm 0.00 W/m2
22:59 63.1 °F /  17.3 °C 54.3 °F /  12.4 °C 30.2in /  1022.9hPa Calm   3mph /  4.8km/h 73% 0in /  0.0mm 0.00 W/m2
23:04 62.8 °F /  17.1 °C 54 °F /  12.2 °C 30.2in /  1022.6hPa Calm   2mph /  3.2km/h 73% 0in /  0.0mm 0.00 W/m2
23:09 62.8 °F /  17.1 °C 54 °F /  12.2 °C 30.2in /  1022.9hPa ENE 2mph /  3.2km/h 4mph /  6.4km/h 73% 0in /  0.0mm 0.00 W/m2
23:14 62.6 °F /  17.0 °C 53.8 °F /  12.1 °C 30.2in /  1022.9hPa Calm   1mph /  1.6km/h 73% 0in /  0.0mm 0.00 W/m2
23:19 62.6 °F /  17.0 °C 54.1 °F /  12.3 °C 30.2in /  1022.9hPa Calm     74% 0in /  0.0mm 0.00 W/m2
23:24 62.4 °F /  16.9 °C 54 °F /  12.2 °C 30.2in /  1022.9hPa Calm   1mph /  1.6km/h 74% 0in /  0.0mm 0.00 W/m2
23:29 62.4 °F /  16.9 °C 54 °F /  12.2 °C 30.2in /  1022.9hPa ENE 4mph /  6.4km/h 4mph /  6.4km/h 74% 0in /  0.0mm 0.00 W/m2
23:34 62.4 °F /  16.9 °C 53.6 °F /  12.0 °C 30.2in /  1022.9hPa Calm   1mph /  1.6km/h 73% 0in /  0.0mm 0.00 W/m2
23:39 62.1 °F /  16.7 °C 53.6 °F /  12.0 °C 30.2in /  1022.9hPa Calm   2mph /  3.2km/h 74% 0in /  0.0mm 0.00 W/m2
23:44 61.9 °F /  16.6 °C 53.4 °F /  11.9 °C 30.2in /  1022.9hPa ENE 0.9mph /  1.4km/h 5mph /  8.0km/h 74% 0in /  0.0mm 0.00 W/m2
23:49 61.7 °F /  16.5 °C 53.2 °F /  11.8 °C 30.2in /  1022.9hPa Calm   2mph /  3.2km/h 74% 0in /  0.0mm 0.00 W/m2
23:54 61.5 °F /  16.4 °C 53.2 °F /  11.8 °C 30.2in /  1022.9hPa Calm   1mph /  1.6km/h 74% 0in /  0.0mm 0.00 W/m2
23:59 61.3 °F /  16.3 °C 53.1 °F /  11.7 °C 30.2in /  1022.9hPa ENE 0.9mph /  1.4km/h 2mph /  3.2km/h 74% 0in /  0.0mm 0.00 W/m2